Ducor, CA

12:53 AM PST on February 07, 2016 (GMT -0800)
Porterville Municipal | | Change Station
CLOSE
Current Station
Airport
Location: Porterville,
Elevation: 443 ft
Nearby Weather Stations

Elev 443 ft 36.03 °N, 119.06 °W | Updated 57 minutes ago

Clear
Clear
44 °F
Feels Like 42 °F
N
4
Wind Variable Wind from East

Today
High -- | Low -- °F
--% Chance of Precip.
Yesterday
High -- | Low -- °F
Precip. -- in
Pressure 30.39 in
Visibility 6.0 miles
Clouds Clear
Windchill 42 °F
Dew Point 42 °F
Humidity 93%
Rainfall 0.00 in
Snow Depth Not available.
6:52 AM 5:29 PM
Waning Crescent, 2% visible
METAR KPTV 070756Z AUTO 09003KT 6SM BR CLR 07/06 A3034 RMK AO2 SLP291 T00670056 401830011
Pressure 30.39 in
Visibility 6.0 miles
Clouds Clear
Windchill 42 °F
Dew Point 42 °F
Humidity 93%
Rainfall 0.00 in
Snow Depth Not available.
6:52 AM 5:29 PM
Waning Crescent, 2% visible
METAR KPTV 070756Z AUTO 09003KT 6SM BR CLR 07/06 A3034 RMK AO2 SLP291 T00670056 401830011

10-Day Weather Forecast

Almanac

Astronomy

Feb. 07, 2016 Rise Set
Actual Time
Civil Twilight
Nautical Twilight
Astronomical Twilight
Moon
Length of Visible Light
Length of Day
Tomorrow will be .
, % of the Moon is Illuminated

Today's Extremes

State Highs State Lows

Community

WunderPhotos

Upload Photos

1,891,171 photos uploaded!

WunderBlog® & News

Nearby

Air Quality

  Air Quality AQ Index Pollutant
Not available.

Snow Depth

Station Depth Elevation

Earthquake Activity

City Distance Mag. Time & Date
Minimum magnitude displayed is 2.5.

Coastal Water Temperatures

Place Temperature

Stations

Nearby Weather Stations

Station Location Temp. Windchill Dew Point Humidity Wind Precip. Elev Updated Type
                   

Watches & Warnings

There are currently no watches in effect.